Latest Weather Observations for Hamilton Island

IDQ60801

Issued at 12:02 am EST Wednesday 1 July 2015 (issued every 30 minutes, with the page automatically refreshed every 10 minutes)

About weather observations | Map of weather stations | Latest weather observations for QLD | Other Formats
Station Details ID: 033106 Name: HAMILTON ISLAND AIRPORT Lat: -20.37 Lon: 148.95 Height: 58.66 m
Data from the previous 72 hours. | See also: Recent months at Hamilton Island
Date/Time
EST
Temp
°C
App
Temp
°C
Dew
Point
Rel
Hum
%
Delta-T
°C
Wind Press
QNH
hPa
Press
MSL
hPa
Rain
since 9 am
mm
Dir
 
Spd
km/h
Gust
km/h
Spd
kts
Gust
kts
01/12:00am 20.9 16.3 17.9 83 1.9 SE 39 44 21 24 1021.9 1021.7 5.6
 
Date/Time
EST
Temp
°C
App
Temp
°C
Dew
Point
Rel
Hum
%
Delta-T
°C
Wind Press
QNH
hPa
Press
MSL
hPa
Rain
since 9 am
mm
Dir
 
Spd
km/h
Gust
km/h
Spd
kts
Gust
kts
30/11:46pm 20.8 16.5 17.8 83 1.9 SSE 37 43 20 23 1021.9 - 5.6
30/11:30pm 20.9 17.1 18.1 84 1.7 SSE 35 43 19 23 1022.3 - 5.6
30/11:00pm 21.0 17.2 18.2 84 1.7 SSE 35 39 19 21 1022.5 - 5.6
30/10:39pm 21.0 17.2 18.2 84 1.7 SSE 35 41 19 22 1022.7 - 5.6
30/10:30pm 21.1 17.9 18.5 85 1.6 SE 33 41 18 22 1022.7 - 5.6
30/10:00pm 21.1 16.5 18.1 83 1.9 SE 39 43 21 23 1022.5 - 5.6
30/09:30pm 21.2 17.5 18.4 84 1.8 SE 35 43 19 23 1022.6 - 5.6
30/09:00pm 21.1 17.3 18.1 83 1.9 SE 35 39 19 21 1022.4 1022.2 5.6
30/08:30pm 20.9 17.3 17.7 82 2.0 SE 33 39 18 21 1022.6 - 5.6
30/08:00pm 20.8 17.6 18.2 85 1.6 SE 32 37 17 20 1022.4 - 5.6
30/07:30pm 20.8 17.2 18.6 87 1.4 SE 35 41 19 22 1022.4 - 5.6
30/07:00pm 20.6 16.1 18.2 86 1.5 SSE 39 44 21 24 1022.1 - 5.6
30/06:30pm 20.6 15.8 18.5 88 1.3 SSE 41 48 22 26 1021.8 - 5.4
30/06:00pm 20.5 15.8 18.6 89 1.2 SSE 41 48 22 26 1021.5 1021.3 5.4
30/05:38pm 20.4 15.6 18.5 89 1.2 SSE 41 46 22 25 1021.3 - 5.4
30/05:30pm 20.5 15.8 18.6 89 1.2 SSE 41 46 22 25 1021.2 - 5.4
30/05:13pm 20.5 15.7 18.4 88 1.3 SSE 41 46 22 25 1021.1 - 5.4
30/05:00pm 20.6 15.8 18.5 88 1.3 SSE 41 46 22 25 1021.1 - 5.4
30/04:30pm 20.7 16.3 18.5 87 1.4 SSE 39 48 21 26 1020.8 - 5.4
30/04:00pm 21.5 18.3 18.5 83 1.9 SSE 33 39 18 21 1020.7 - 5.4
30/03:30pm 21.5 17.5 17.5 78 2.5 SE 35 41 19 22 1020.6 - 5.4
30/03:00pm 21.8 18.2 18.6 82 2.0 SSE 35 41 19 22 1020.7 1020.5 5.4
30/02:30pm 22.0 18.9 17.6 76 2.7 SE 30 43 16 23 1020.8 - 5.4
30/02:23pm 21.9 19.3 17.7 77 2.6 SSE 28 32 15 17 1020.8 - 5.4
30/02:06pm 21.2 16.7 17.4 79 2.3 SSE 37 46 20 25 1020.7 - 5.4
30/02:00pm 22.0 18.9 18.8 82 2.0 SSE 33 43 18 23 1020.8 - 5.4
30/01:30pm 20.8 17.5 18.4 86 1.5 SSE 33 39 18 21 1020.9 - 5.4
30/01:00pm 21.1 17.8 17.9 82 2.0 SE 32 35 17 19 1021.1 - 5.4
30/12:30pm 20.8 19.3 18.6 87 1.4 SSE 24 33 13 18 1021.8 - 5.4
30/12:10pm 19.8 18.3 18.5 92 0.8 SE 24 28 13 15 1022.2 - 5.4
30/12:00pm 19.4 16.1 17.9 91 0.9 SE 32 46 17 25 1022.3 1022.1 5.4
30/11:58am 19.5 15.3 18.0 91 0.9 SE 37 56 20 30 1022.3 - 5.4
30/11:55am 19.6 14.2 17.9 90 1.0 SE 43 56 23 30 1022.4 - 5.4
30/11:43am 21.5 17.8 18.3 82 2.0 SE 35 65 19 35 1022.2 - 4.8
30/11:30am 22.4 18.8 18.6 79 2.4 SE 35 41 19 22 1022.4 - 4.8
30/11:10am 22.0 17.9 18.2 79 2.4 ESE 37 41 20 22 1022.6 - 4.8
30/11:00am 21.7 18.5 18.5 82 2.0 SE 33 41 18 22 1022.6 - 4.8
30/10:47am 21.5 18.5 19.1 86 1.5 SE 33 39 18 21 1022.8 - 4.8
30/10:30am 21.5 18.7 19.4 88 1.3 ESE 33 41 18 22 1022.8 - 4.8
30/10:00am 20.8 19.2 19.3 91 1.0 SE 26 30 14 16 1023.0 - 4.8
30/09:59am 20.7 19.1 19.2 91 0.9 SE 26 30 14 16 1023.0 - 4.8
30/09:30am 18.8 12.7 17.5 92 0.8 ESE 46 54 25 29 1022.9 - 2.8
30/09:22am 19.1 12.5 17.2 89 1.2 E 48 59 26 32 1022.8 - 1.0
30/09:17am 19.9 12.9 16.3 80 2.2 E 48 56 26 30 1022.7 - 0.0
30/09:00am 21.7 18.6 18.5 82 2.0 SE 32 37 17 20 1022.7 1022.5 4.4
30/08:30am 21.2 18.3 18.8 86 1.5 SE 32 37 17 20 1022.5 - 4.4
30/08:00am 21.0 16.7 18.6 86 1.5 SE 39 43 21 23 1022.1 - 4.4
30/07:30am 20.8 17.8 18.7 88 1.3 SE 32 48 17 26 1021.7 - 4.4
30/07:00am 20.0 16.9 18.3 90 1.1 SE 32 39 17 21 1021.6 - 4.4
30/06:30am 20.3 17.9 19.1 93 0.8 SE 30 35 16 19 1021.2 - 4.0
30/06:17am 20.4 18.5 19.4 94 0.6 SE 28 37 15 20 1021.2 - 4.0
30/06:00am 20.0 16.9 18.8 93 0.8 ESE 33 43 18 23 1021.0 1020.8 4.0
30/05:51am 19.7 15.2 18.2 91 0.9 ESE 39 63 21 34 1020.8 - 3.6
30/05:49am 19.1 14.2 17.2 89 1.2 SE 39 63 21 34 1020.5 - 2.8
30/05:30am 20.1 16.6 17.9 87 1.4 ESE 33 44 18 24 1020.8 - 1.4
30/05:00am 21.4 16.9 17.4 78 2.5 ESE 37 43 20 23 1020.5 - 0.0
30/04:30am 21.3 17.6 18.3 83 1.9 SE 35 41 19 22 1020.4 - 0.0
30/04:00am 21.6 17.8 18.2 81 2.1 ESE 35 41 19 22 1020.6 - 0.0
30/03:30am 21.5 16.7 17.5 78 2.5 ESE 39 44 21 24 1020.6 - 0.0
30/03:00am 21.5 17.3 18.1 81 2.1 ESE 37 43 20 23 1020.6 1020.4 0.0
30/02:30am 21.7 16.3 17.9 79 2.4 ESE 43 50 23 27 1020.6 - 0.0
30/02:00am 21.8 16.7 17.8 78 2.5 ESE 41 48 22 26 1021.1 - 0.0
30/01:30am 22.0 17.5 18.2 79 2.4 ESE 39 48 21 26 1021.6 - 0.0
30/01:00am 22.2 15.5 16.2 69 3.6 ESE 46 54 25 29 1021.6 - 0.0
30/12:30am 22.1 16.1 17.0 73 3.1 ESE 44 50 24 27 1021.7 - 0.0
30/12:00am 22.1 16.5 17.9 77 2.6 ESE 44 52 24 28 1021.8 1021.6 0.0
 
Date/Time
EST
Temp
°C
App
Temp
°C
Dew
Point
Rel
Hum
%
Delta-T
°C
Wind Press
QNH
hPa
Press
MSL
hPa
Rain
since 9 am
mm
Dir
 
Spd
km/h
Gust
km/h
Spd
kts
Gust
kts
29/11:30pm 21.9 16.3 17.9 78 2.5 ESE 44 56 24 30 1021.9 - 0.0
29/11:00pm 22.0 16.4 17.8 77 2.6 ESE 44 52 24 28 1022.0 - 0.0
29/10:30pm 22.2 16.2 17.8 76 2.7 ESE 46 54 25 29 1022.1 - 0.0
29/10:00pm 22.2 16.7 17.6 75 2.9 ESE 43 50 23 27 1022.1 - 0.0
29/09:30pm 22.2 16.7 18.2 78 2.5 ESE 44 52 24 28 1022.1 - 0.0
29/09:00pm 22.1 16.3 17.5 75 2.8 ESE 44 54 24 29 1022.1 1021.9 0.0
29/08:30pm 22.1 16.3 17.5 75 2.8 ESE 44 54 24 29 1021.9 - 0.0
29/08:00pm 22.1 15.8 17.2 74 3.0 ESE 46 61 25 33 1021.9 - 0.0
29/07:30pm 22.0 16.5 17.6 76 2.7 ESE 43 52 23 28 1021.8 - 0.0
29/07:00pm 22.1 16.1 16.8 72 3.2 ESE 44 54 24 29 1021.6 - 0.0
29/06:30pm 21.9 16.2 17.7 77 2.6 ESE 44 52 24 28 1021.5 - 0.0
29/06:00pm 21.2 15.1 17.6 80 2.2 SE 46 56 25 30 1021.3 1021.1 0.0
29/05:30pm 22.1 16.5 17.9 77 2.6 SE 44 56 24 30 1021.3 - 0.0
29/05:00pm 21.9 16.5 17.9 78 2.5 SE 43 50 23 27 1021.0 - 0.0
29/04:30pm 21.5 15.4 17.7 79 2.4 SE 46 56 25 30 1020.9 - 0.0
29/04:00pm 22.2 16.7 17.6 75 2.9 SE 43 50 23 27 1020.8 - 0.0
29/03:30pm 22.2 16.4 17.3 74 3.0 SE 44 54 24 29 1020.8 - 0.0
29/03:00pm 22.3 16.2 17.7 75 2.9 SE 46 54 25 29 1020.6 1020.4 0.0
29/02:30pm 22.6 15.9 17.1 71 3.4 SE 48 56 26 30 1020.8 - 0.0
29/02:00pm 22.7 16.9 17.4 72 3.3 ESE 44 54 24 29 1021.2 - 0.0
29/01:30pm 22.6 16.3 17.1 71 3.4 ESE 46 54 25 29 1021.2 - 0.0
29/01:00pm 22.9 17.2 17.6 72 3.3 SE 44 50 24 27 1021.6 - 0.0
29/12:30pm 22.7 16.5 17.4 72 3.3 SE 46 54 25 29 1022.1 - 0.0
29/12:00pm 22.7 16.1 17.4 72 3.3 SE 48 56 26 30 1022.4 1022.2 0.0
29/11:30am 22.8 16.0 17.7 73 3.2 SE 50 59 27 32 1022.9 - 0.0
29/11:00am 23.0 17.0 17.0 69 3.7 SE 44 52 24 28 1023.3 - 0.0
29/10:30am 23.0 16.9 17.5 71 3.4 SE 46 54 25 29 1023.6 - 0.0
29/10:00am 22.8 16.3 17.5 72 3.3 SE 48 59 26 32 1023.6 - 0.0
29/09:30am 22.4 15.9 17.5 74 3.0 SE 48 57 26 31 1023.7 - 0.0
29/09:00am 22.5 15.9 17.2 72 3.3 ESE 48 57 26 31 1023.5 1023.3 7.2
29/08:30am 21.4 16.3 17.8 80 2.2 SE 41 50 22 27 1023.6 - 7.2
29/08:16am 21.2 15.7 17.6 80 2.2 SE 43 50 23 27 1023.4 - 7.0
29/08:00am 20.4 11.6 18.0 86 1.5 SE 61 70 33 38 1023.1 - 7.0
29/07:44am 20.8 14.1 18.0 84 1.7 SE 50 61 27 33 1022.9 - 7.0
29/07:30am 19.9 12.9 18.2 90 1.1 SE 52 61 28 33 1022.9 - 7.0
29/07:21am 20.0 12.9 18.0 88 1.2 ESE 52 72 28 39 1022.8 - 6.8
29/07:00am 21.5 14.8 17.1 76 2.7 SE 48 56 26 30 1022.5 - 6.6
29/06:30am 21.2 16.2 18.0 82 2.0 SE 41 48 22 26 1022.2 - 6.6
29/06:00am 21.1 16.7 18.5 85 1.6 SE 39 46 21 25 1022.1 1021.9 6.6
29/05:30am 21.1 15.8 18.1 83 1.9 SE 43 50 23 27 1021.7 - 6.6
29/05:00am 21.0 16.1 18.2 84 1.7 SE 41 50 22 27 1021.3 - 6.6
29/04:30am 20.8 14.7 18.4 86 1.5 ESE 48 57 26 31 1021.2 - 6.6
29/04:03am 19.9 13.0 18.4 91 0.9 SE 52 61 28 33 1021.1 - 6.6
29/04:00am 19.7 12.7 18.2 91 0.9 SE 52 61 28 33 1021.1 - 6.6
29/03:31am 19.7 11.8 18.2 91 0.9 ESE 57 69 31 37 1021.0 - 6.4
29/03:30am 19.6 11.6 18.1 91 0.9 ESE 57 69 31 37 1021.0 - 6.4
29/03:28am 20.0 12.4 18.5 91 0.9 ESE 56 69 30 37 1021.1 - 6.2
29/03:14am 21.1 16.0 19.0 88 1.3 SE 44 63 24 34 1021.3 - 6.2
29/03:00am 20.9 14.7 19.0 89 1.2 SE 50 57 27 31 1021.3 1021.1 6.2
29/02:30am 20.7 15.0 18.6 88 1.3 SE 46 54 25 29 1021.5 - 6.0
29/02:00am 20.1 14.2 18.0 88 1.3 SE 46 56 25 30 1021.5 - 6.0
29/01:37am 19.6 15.3 18.6 94 0.6 SE 39 50 21 27 1021.7 - 5.8
29/01:30am 19.5 14.3 18.7 95 0.5 SE 44 50 24 27 1022.0 - 5.8
29/01:11am 19.8 12.7 17.9 89 1.2 SE 52 69 28 37 1021.6 - 4.2
29/01:00am 21.0 15.8 18.4 85 1.6 SE 43 52 23 28 1021.9 - 3.8
29/12:30am 20.7 13.8 18.3 86 1.5 SE 52 65 28 35 1022.2 - 3.8
29/12:27am 20.5 14.1 18.6 89 1.2 SE 50 59 27 32 1022.1 - 3.8
29/12:13am 20.5 14.1 18.6 89 1.2 SE 50 61 27 33 1022.4 - 3.8
29/12:04am 20.6 14.7 18.9 90 1.1 SE 48 61 26 33 1022.5 - 3.6
29/12:00am 20.5 14.2 18.8 90 1.1 SE 50 61 27 33 1022.6 1022.4 3.6
 
Date/Time
EST
Temp
°C
App
Temp
°C
Dew
Point
Rel
Hum
%
Delta-T
°C
Wind Press
QNH
hPa
Press
MSL
hPa
Rain
since 9 am
mm
Dir
 
Spd
km/h
Gust
km/h
Spd
kts
Gust
kts
28/11:57pm 20.1 13.6 18.4 90 1.1 SE 50 61 27 33 1022.4 - 3.6
28/11:51pm 19.8 11.8 18.1 90 1.1 SE 57 76 31 41 1022.6 - 3.6
28/11:45pm 20.3 12.2 18.6 90 1.1 SE 59 76 32 41 1022.7 - 3.6
28/11:42pm 20.7 13.0 18.3 86 1.5 SE 56 76 30 41 1022.2 - 3.4
28/11:30pm 21.1 14.3 18.7 86 1.5 SE 52 63 28 34 1022.6 - 3.4
28/11:20pm 21.1 14.7 18.7 86 1.5 SE 50 63 27 34 1022.8 - 3.4
28/11:00pm 20.7 13.8 18.3 86 1.5 SE 52 63 28 34 1023.0 - 3.4
28/10:45pm 20.8 14.4 18.7 88 1.3 SE 50 61 27 33 1023.1 - 3.4
28/10:31pm 20.7 13.5 18.6 88 1.3 SE 54 61 29 33 1023.1 - 3.4
28/10:30pm 20.7 13.5 18.6 88 1.3 SE 54 61 29 33 1023.1 - 3.4
28/10:00pm 20.7 14.4 18.8 89 1.2 SE 50 59 27 32 1023.0 - 3.2
28/09:57pm 20.6 14.6 18.7 89 1.2 SE 48 59 26 32 1023.0 - 3.2
28/09:30pm 19.9 12.9 18.2 90 1.1 SE 52 69 28 37 1023.2 - 3.2
28/09:00pm 20.2 14.7 19.0 93 0.8 SE 46 57 25 31 1023.3 1023.1 3.2
28/08:44pm 19.4 14.0 18.4 94 0.6 SE 44 54 24 29 1023.4 - 3.2
28/08:30pm 19.3 14.0 18.5 95 0.5 SE 44 56 24 30 1023.3 - 3.0
28/08:18pm 19.5 12.9 18.2 92 0.8 ESE 50 69 27 37 1023.5 - 2.8
28/08:11pm 19.8 11.8 17.6 87 1.4 SE 56 69 30 37 1023.1 - 2.0
28/08:00pm 21.4 14.7 18.8 85 1.6 SE 52 65 28 35 1022.9 - 1.4
28/07:30pm 21.6 16.5 19.0 85 1.6 SE 44 54 24 29 1022.9 - 1.4
28/07:00pm 21.5 14.9 18.3 82 2.0 SE 50 63 27 34 1022.5 - 1.4
28/06:30pm 21.7 16.2 18.9 84 1.8 SE 46 59 25 32 1022.5 - 1.4
28/06:00pm 21.5 16.3 18.9 85 1.6 SE 44 54 24 29 1022.3 1022.1 1.4
28/05:30pm 21.6 16.0 18.8 84 1.8 SE 46 57 25 31 1022.0 - 1.4
28/05:00pm 21.4 15.6 18.2 82 2.0 SE 46 57 25 31 1021.8 - 1.4
28/04:31pm 21.1 16.2 19.0 88 1.3 SE 43 52 23 28 1021.5 - 1.4
28/04:30pm 21.3 16.6 19.4 89 1.2 SE 43 52 23 28 1021.5 - 1.4
28/04:11pm 21.2 15.7 18.9 87 1.5 SSE 46 54 25 29 1021.4 - 1.4
28/04:00pm 21.1 15.5 18.7 86 1.5 SSE 46 54 25 29 1021.5 - 1.4
28/03:30pm 21.2 16.2 18.8 86 1.5 SSE 43 50 23 27 1021.6 - 1.4
28/03:17pm 21.0 16.4 18.8 87 1.4 SSE 41 48 22 26 1021.6 - 1.4
28/03:07pm 21.0 15.9 18.6 86 1.5 SSE 43 48 23 26 1021.7 - 1.4
28/03:06pm 21.0 15.9 18.6 86 1.5 SSE 43 48 23 26 1021.6 - 1.4
28/03:00pm 21.0 16.0 18.8 87 1.4 SSE 43 50 23 27 1021.6 1021.4 1.4
28/02:30pm 20.5 14.0 18.4 88 1.3 SSE 50 56 27 30 1021.8 - 1.4
28/02:00pm 21.1 15.3 19.2 89 1.2 SSE 48 56 26 30 1021.8 - 1.4
28/01:30pm 20.4 15.0 18.3 88 1.3 SSE 44 56 24 30 1021.9 - 1.4
28/01:00pm 20.2 14.5 18.5 90 1.1 SSE 46 56 25 30 1022.2 - 1.4
28/12:30pm 20.3 13.3 18.2 88 1.3 SSE 52 59 28 32 1022.2 - 1.2
28/12:00pm 20.5 14.5 18.6 89 1.2 SSE 48 57 26 31 1022.6 1022.4 1.2
28/11:30am 20.1 13.7 18.6 91 0.9 SSE 50 59 27 32 1022.9 - 1.2
28/11:00am 19.9 12.8 18.7 93 0.8 SSE 54 63 29 34 1022.9 - 1.2
28/10:54am 19.9 13.1 18.7 93 0.8 SSE 52 59 28 32 1022.9 - 1.2
28/10:36am 20.1 13.4 18.9 93 0.8 SSE 52 59 28 32 1023.2 - 0.8
28/10:30am 20.1 13.3 18.6 91 0.9 SSE 52 59 28 32 1023.2 - 0.2
28/10:00am 20.1 12.9 18.6 91 0.9 SSE 54 61 29 33 1023.3 - 0.2
28/09:51am 19.9 12.7 18.6 92 0.8 SSE 54 61 29 33 1023.2 - 0.2
28/09:37am 19.9 13.1 18.7 93 0.8 SSE 52 61 28 33 1023.4 - 0.2
28/09:30am 20.0 13.5 18.5 91 0.9 SSE 50 61 27 33 1023.3 - 0.0
28/09:00am 20.1 13.8 18.8 92 0.8 SSE 50 59 27 32 1023.4 1023.2 26.0
28/08:30am 19.9 14.5 18.4 91 0.9 SSE 44 54 24 29 1023.2 - 25.8
28/08:00am 19.6 14.6 17.9 90 1.0 SSE 41 52 22 28 1023.0 - 25.8
28/07:30am 19.4 12.7 17.9 91 0.9 SSE 50 61 27 33 1022.6 - 25.8
28/07:00am 19.5 14.0 18.2 92 0.8 SSE 44 56 24 30 1022.5 - 25.6
28/06:30am 19.5 14.3 18.7 95 0.5 SSE 44 56 24 30 1022.2 - 25.6
28/06:24am 19.8 13.2 19.1 96 0.4 SSE 52 61 28 33 1022.1 - 25.6
28/06:11am 19.4 14.7 18.7 96 0.4 SSE 41 59 22 32 1022.0 - 25.4
28/06:00am 19.5 14.7 18.5 94 0.6 SSE 41 54 22 29 1022.1 1021.9 22.6
28/05:48am 19.8 14.7 18.6 93 0.7 SSE 43 50 23 27 1021.9 - 21.8
28/05:30am 19.8 14.7 18.5 92 0.8 SSE 43 50 23 27 1021.8 - 21.6
28/05:00am 19.8 14.0 18.3 91 0.9 SSE 46 57 25 31 1021.8 - 21.6
28/04:30am 20.0 13.1 18.3 90 1.1 SSE 52 57 28 31 1021.6 - 21.6
28/04:29am 20.0 13.1 18.3 90 1.1 SSE 52 57 28 31 1021.4 - 21.6
28/04:01am 20.5 14.5 18.6 89 1.2 SE 48 59 26 32 1021.5 - 21.6
28/04:00am 20.6 14.6 18.7 89 1.2 SE 48 59 26 32 1021.7 - 21.6
28/03:34am 19.8 12.1 18.3 91 0.9 SSE 56 74 30 40 1021.4 - 21.6
28/03:30am 20.0 13.2 18.7 92 0.8 SSE 52 63 28 34 1021.6 - 21.6
28/03:00am 19.9 13.1 18.6 92 0.8 SSE 52 63 28 34 1021.7 1021.5 21.4
28/02:37am 19.4 15.1 18.6 95 0.5 SSE 39 50 21 27 1021.9 - 21.2
28/02:30am 19.0 13.7 18.2 95 0.5 SSE 43 57 23 31 1022.1 - 21.2
28/02:12am 19.5 14.4 18.7 95 0.5 SSE 43 52 23 28 1022.2 - 19.8
28/02:00am 19.9 14.6 18.6 92 0.8 SSE 44 52 24 28 1022.3 - 18.0
28/01:33am 19.9 12.9 18.2 90 1.1 SE 52 70 28 38 1022.5 - 18.0
28/01:30am 20.0 12.8 18.5 91 0.9 SSE 54 70 29 38 1022.5 - 18.0
28/01:23am 20.2 14.4 18.3 89 1.2 SE 46 69 25 37 1022.1 - 17.6
28/01:00am 20.5 16.7 19.0 91 0.9 SSE 37 43 20 23 1022.8 - 17.6
28/12:57am 20.6 16.8 18.9 90 1.1 SSE 37 43 20 23 1022.9 - 17.6
28/12:34am 20.3 15.6 18.6 90 1.1 SE 41 48 22 26 1023.0 - 17.6
28/12:30am 20.3 15.7 18.8 91 0.9 SE 41 48 22 26 1023.0 - 17.6

Other Formats:

Comma delimited format used in spreadsheet applications
http://www.bom.gov.au/fwo/IDQ60801/IDQ60801.94368.axf

JavaScript Object Notation format (JSON) in row-major order
http://www.bom.gov.au/fwo/IDQ60801/IDQ60801.94368.json